METAR AND TAF INFORMATION
METAR FOR MUCL
MUCL 260350Z AUTO 05010KT 030V100 22/16 Q1020
MUCL 260250Z AUTO VRB10KT 22/15 Q1020
MUCL 260150Z AUTO 32005KT 20/14 Q1020

 AIRPORT MAP

 RUNWAY INFORMATION
Runway 12 Runway length 9869 ft Runway width 148 ft
Runway elevation 7 ft Runway displaced threshold 0 ft Runway heading 116
Runway 30 Runway length 9869 ft Runway width 148 ft
Runway elevation 10 ft Runway displaced threshold 0 ft Runway heading 296

 AIRPORT FREQUENCIES
Type A/G Name CAYO LARGO Frequency 340.7 MHZ
Type APP Name CAYO LARGO Frequency 120.1 MHZ
Type TWR Name CAYO LARGO Frequency 118.5 MHZ

 AIRPORT NEAR NAVIGATION AIDS
Type VOR-DME Name Cayo Largo Del Sur Frequency 112100 KHZ
Type NDB Name Cayo Largo Del Sur Frequency 230 KHZ

-